WetterOnline ( https://www.wetteronline.de )

Wetter aktuell Bamberg

Aktuelles Wetter: Bamberg (243m)

6-stündlich | Neueste Meldungen
Ortszeit Temperatur Wetter
Mo, 15.07. 20:00 26.6° C wolkig
Mo, 15.07. 14:00 28.3° C wolkenlos
Mo, 15.07. 8:00 16.5° C wolkenlos
Mo, 15.07. 2:00 12.6° C wolkenlos
So, 14.07. 20:00 20.9° C bedeckt
So, 14.07. 14:00 24.8° C leicht bewölkt
So, 14.07. 8:00 15.2° C leicht bewölkt
So, 14.07. 2:00 11.1° C leicht bewölkt
Ortszeit Temperatur Wetter
Mo, 15.07. 20:00 26.6° C wolkig
Mo, 15.07. 19:50 26.6° C wolkig
Mo, 15.07. 19:40 28.5° C wolkig
Mo, 15.07. 19:30 29.2° C wolkig
Mo, 15.07. 19:20 29.2° C wolkig
Mo, 15.07. 19:10 28.0° C bedeckt
Mo, 15.07. 19:00 28.4° C wolkig
Mo, 15.07. 18:30 30.3° C wolkig
Mo, 15.07. 18:00 30.3° C leicht bewölkt
Mo, 15.07. 17:30 30.6° C leicht bewölkt
Mo, 15.07. 17:00 30.3° C wolkenlos
Ortszeit Relative Feuchte Sichtweite
Mo, 15.07. 20:00 63% 50 km
Mo, 15.07. 14:00 39% 60 km
Mo, 15.07. 8:00 78% 40 km
Mo, 15.07. 2:00 97% 30 km
So, 14.07. 20:00 65% >70 km
So, 14.07. 14:00 35% 45 km
So, 14.07. 8:00 87% 65 km
So, 14.07. 2:00 97% 23 km
Ortszeit Relative Feuchte Sichtweite
Mo, 15.07. 20:00 63% 50 km
Mo, 15.07. 19:50 63% -
Mo, 15.07. 19:40 54% -
Mo, 15.07. 19:30 47% 50 km
Mo, 15.07. 19:20 47% -
Mo, 15.07. 19:10 54% -
Mo, 15.07. 19:00 50% >70 km
Mo, 15.07. 18:30 38% >70 km
Mo, 15.07. 18:00 37% >70 km
Mo, 15.07. 17:30 34% >70 km
Mo, 15.07. 17:00 36% 55 km
Ortszeit Niederschlagsmenge Niederschlagsart
Mo, 15.07. 20:00 0.0 l/m2 in 12 Std. -
Mo, 15.07. 14:00 0.0 l/m2 in 6 Std. -
Mo, 15.07. 8:00 0.0 l/m2 in 12 Std. -
Mo, 15.07. 2:00 0.0 l/m2 in 6 Std. -
So, 14.07. 20:00 0.0 l/m2 in 12 Std. -
So, 14.07. 14:00 0.0 l/m2 in 6 Std. -
So, 14.07. 8:00 0.0 l/m2 in 12 Std. -
So, 14.07. 2:00 0.0 l/m2 in 6 Std. -
Ortszeit Niederschlagsmenge Niederschlagsart
Mo, 15.07. 20:00 0.0 l/m2 in 1 Std. -
Mo, 15.07. 19:50 keine Meldung -
Mo, 15.07. 19:40 keine Meldung -
Mo, 15.07. 19:30 0.0 l/m2 in 30 Min -
Mo, 15.07. 19:20 keine Meldung -
Mo, 15.07. 19:10 keine Meldung -
Mo, 15.07. 19:00 0.0 l/m2 in 1 Std. -
Mo, 15.07. 18:30 0.0 l/m2 in 30 Min -
Mo, 15.07. 18:00 0.0 l/m2 in 1 Std. -
Mo, 15.07. 17:30 0.0 l/m2 in 30 Min -
Mo, 15.07. 17:00 0.0 l/m2 in 1 Std. -
Ortszeit Stärke Spitze Richtung
km/h Bft. km/h Grad Sektor
Mo, 15.07. 20:00 4 1 22 130° SO
Mo, 15.07. 14:00 7 2 18 180° S
Mo, 15.07. 8:00 0 0 7 - -
Mo, 15.07. 2:00 4 1 7 100° O
So, 14.07. 20:00 0 0 29 - -
So, 14.07. 14:00 7 2 25 210° SW
So, 14.07. 8:00 4 1 7 230° SW
So, 14.07. 2:00 2 1 11 110° O
Ortszeit Stärke Spitze Richtung
km/h Bft. km/h Grad Sektor
Mo, 15.07. 20:00 4 1 7 130° SO
Mo, 15.07. 19:50 4 1 - 130° SO
Mo, 15.07. 19:40 4 1 - 120° SO
Mo, 15.07. 19:30 4 1 7 110° O
Mo, 15.07. 19:20 4 1 - 110° O
Mo, 15.07. 19:10 4 1 - 130° SO
Mo, 15.07. 19:00 4 1 11 150° SO
Mo, 15.07. 18:30 4 1 11 160° S
Mo, 15.07. 18:00 4 1 14 170° S
Mo, 15.07. 17:30 7 2 14 180° S
Mo, 15.07. 17:00 7 2 11 130° SO
Ortszeit Untergrenze Bedeckung Gattung
total tief tief mittel hoch
Mo, 15.07. 20:00 4500 m 7/8 4/8 - - -
Mo, 15.07. 14:00 - 0/8 0/8 - - -
Mo, 15.07. 8:00 - 0/8 0/8 - - -
Mo, 15.07. 2:00 - 0/8 0/8 - - -
So, 14.07. 20:00 4200 m 8/8 8/8 - - -
So, 14.07. 14:00 1800 m 3/8 3/8 - - -
So, 14.07. 8:00 1500 m 3/8 3/8 - - -
So, 14.07. 2:00 2700 m 2/8 2/8 - - -
Ortszeit Bedeckungsgrad in Achtel und Wolkenuntergrenze
Mo, 15.07. 20:00 4(4500m) 6(8700m) 7(9000m)
Mo, 15.07. 19:50 4(4500m) 6(8700m) 7(9000m)
Mo, 15.07. 19:40 6
Mo, 15.07. 19:30 1(4500m) 8(9000m)
Mo, 15.07. 19:20 1(4500m) 8(9000m)
Mo, 15.07. 19:10 8
Mo, 15.07. 19:00 8(8700m)
Mo, 15.07. 18:30 8(9000m)
Mo, 15.07. 18:00 4(9000m) 5(9000m)
Mo, 15.07. 17:30 2(8700m) 4(9000m)
Mo, 15.07. 17:00 keine Wolken
Ortszeit Luftdruck NN (hPa) Tendenz (hPa in 3 Std.)
Mo, 15.07. 20:00 1009 - 0,9
Mo, 15.07. 14:00 1011 - 1,4
Mo, 15.07. 8:00 1015 + 0,3
Mo, 15.07. 2:00 1015 + 0,2
So, 14.07. 20:00 1014 + 0,5
So, 14.07. 14:00 1013 - 0,6
So, 14.07. 8:00 1015 + 0,7
So, 14.07. 2:00 1015 + 0,2
Ortszeit Luftdruck NN (hPa) Tendenz (hPa in 3 Std.)
Mo, 15.07. 20:00 1009 - 0,9
Mo, 15.07. 19:50 1009 keine Meldung
Mo, 15.07. 19:40 1009 keine Meldung
Mo, 15.07. 19:30 1009 - 1,6
Mo, 15.07. 19:20 1009 keine Meldung
Mo, 15.07. 19:10 1009 keine Meldung
Mo, 15.07. 19:00 1009 - 1,9
Mo, 15.07. 18:30 1009 - 2,0
Mo, 15.07. 18:00 1009 - 1,9
Mo, 15.07. 17:30 1009 - 1,6
Mo, 15.07. 17:00 1010 - 1,5
Ortszeit Schneehöhe (cm)
Mo, 15.07. 20:00 0
Mo, 15.07. 14:00 0
Mo, 15.07. 8:00 0
Mo, 15.07. 2:00 0
So, 14.07. 20:00 0
So, 14.07. 14:00 0
So, 14.07. 8:00 0
So, 14.07. 2:00 0
Ortszeit Schneehöhe (cm)
Mo, 15.07. 20:00 0
Mo, 15.07. 19:50 0
Mo, 15.07. 19:40 -
Mo, 15.07. 19:30 0
Mo, 15.07. 19:20 0
Mo, 15.07. 19:10 -
Mo, 15.07. 19:00 0
Mo, 15.07. 18:30 0
Mo, 15.07. 18:00 0
Mo, 15.07. 17:30 0
Mo, 15.07. 17:00 0
Link zu dieser Seite / Seite empfehlen

Das Wetter in ...